createdAt,value
2018-10-06T00:05:15.670Z,1008.0
2018-10-06T00:15:32.407Z,1008.0
2018-10-06T01:51:17.141Z,1007.4
2018-10-06T02:48:35.907Z,1006.7
2018-10-06T02:59:52.489Z,1006.8
2018-10-06T03:15:11.030Z,1006.7
2018-10-06T03:25:27.308Z,1006.6
2018-10-06T04:53:08.057Z,1006.0
2018-10-06T05:35:29.225Z,1005.8
2018-10-06T05:51:14.784Z,1005.7
2018-10-06T07:25:54.084Z,1005.5
2018-10-06T07:57:13.322Z,1005.4
2018-10-06T08:11:16.551Z,1005.3
2018-10-06T08:21:29.794Z,1005.2
2018-10-06T08:31:45.112Z,1005.0
2018-10-06T08:42:48.962Z,1004.7
2018-10-06T08:53:38.965Z,1004.5
2018-10-06T09:06:18.797Z,1004.3
2018-10-06T09:17:54.809Z,1004.1
2018-10-06T09:28:51.696Z,1003.9
2018-10-06T09:52:31.256Z,1003.0
2018-10-06T10:03:24.484Z,1002.8
2018-10-06T10:13:39.422Z,1002.6
2018-10-06T11:32:49.563Z,1002.4
2018-10-06T12:02:57.982Z,1002.2
2018-10-06T12:29:30.722Z,1002.2
2018-10-06T13:20:11.184Z,1002.4
2018-10-06T14:05:16.594Z,1001.8
2018-10-06T14:16:10.842Z,1001.7
2018-10-06T14:26:28.005Z,1001.6
2018-10-06T14:37:38.707Z,1002.1
2018-10-06T14:48:59.818Z,1005.0
2018-10-06T14:59:45.556Z,1004.1
2018-10-06T15:09:59.124Z,1001.1
2018-10-06T15:20:13.361Z,1001.2
2018-10-06T15:30:27.379Z,1001.3
2018-10-06T15:40:41.744Z,1001.2
2018-10-06T15:53:31.979Z,1001.2
2018-10-06T16:05:56.368Z,1001.2
2018-10-06T16:43:58.484Z,1001.5
2018-10-06T16:56:13.943Z,1001.6
2018-10-06T17:45:54.452Z,1001.9
2018-10-06T17:56:11.645Z,1002.0
2018-10-06T18:19:30.190Z,1002.2
2018-10-06T18:44:33.644Z,1002.5
2018-10-06T18:56:37.695Z,1002.6
2018-10-06T19:08:38.221Z,1002.6
2018-10-06T19:20:47.532Z,1002.8
2018-10-06T19:31:04.126Z,1003.0
2018-10-06T19:41:58.034Z,1003.1
2018-10-06T19:52:15.354Z,1003.2
2018-10-06T20:02:35.701Z,1003.5
2018-10-06T20:12:51.311Z,1003.6
2018-10-06T20:25:12.666Z,1003.8
2018-10-06T20:35:58.091Z,1004.1
2018-10-06T20:46:12.118Z,1004.1
2018-10-06T20:56:23.467Z,1004.3
2018-10-06T21:08:16.389Z,1004.4
2018-10-06T21:19:52.841Z,1004.7
2018-10-06T21:31:31.634Z,1005.2
2018-10-06T21:42:37.523Z,1004.9
2018-10-06T21:54:06.029Z,1005.0
2018-10-06T22:04:20.224Z,1005.2
2018-10-06T22:14:34.170Z,1005.2
2018-10-06T22:24:45.257Z,1004.9
2018-10-06T22:34:59.726Z,1005.0
2018-10-06T22:45:13.814Z,1005.1
2018-10-06T22:57:05.557Z,1005.1
2018-10-06T23:09:26.069Z,1005.3
2018-10-06T23:21:10.451Z,1005.4
2018-10-06T23:33:13.041Z,1005.6
2018-10-06T23:44:42.192Z,1006.0
2018-10-06T23:55:30.376Z,1006.1
